Maersk Vallvik — 9V8839 — position and weather

sailwx.info

Track history (hours):
 
Tides and Currents Weather Stations Pressure Air Temp Water Temp Dewpoint Dewpoint Depression Visibility Wind Speed Wind Dir Waves Ship Positions

Maersk Vallvik

Last reported at 2015-Mar-22 16:29 UTC. Time now 2015-Mar-29 01:06 UTC.
Position S 34°18' E 025°02'.

Length 180 m; draft 9.2 m.

Type: Ship. MMSI: 564837000.

Date/timePositionNaut miles runAvg speedWind from/ knotsBaromVisibWave heightAir tempDewpointWater temp
2015-Mar-22 16:29S 34°18' E 025°02'4318.0
2015-Mar-22 14:06S 34°09' E 025°53'34019.0
2015-Mar-21 20:14S 30°23' E 030°53'1218.0
2015-Mar-21 19:33S 30°12' E 030°60'1716.8
2015-Mar-21 18:33S 29°57' E 031°09'7 7.2
2015-Mar-21 17:33S 29°53' E 031°02'2 1.8
2015-Mar-21 16:33S 29°53' E 031°00'0 0.0
2015-Mar-21 15:33S 29°53' E 031°00'0 0.0
2015-Mar-21 14:33S 29°53' E 031°00'0 0.0
2015-Mar-21 11:33S 29°53' E 031°00'0 0.0
2015-Mar-21 10:27S 29°53' E 031°00'0 0.0
2015-Mar-21 09:33S 29°53' E 031°00'0 0.0
2015-Mar-21 08:21S 29°53' E 031°00'0 0.0
2015-Mar-21 07:21S 29°53' E 031°00'0 0.0
2015-Mar-21 06:33S 29°53' E 031°00'0 0.0
2015-Mar-21 05:15S 29°53' E 031°00'0 0.0
2015-Mar-21 04:33S 29°53' E 031°00'0 0.0
2015-Mar-20 23:27S 29°53' E 031°00'0 0.0
2015-Mar-20 22:33S 29°53' E 031°00'0 0.0
2015-Mar-20 21:27S 29°53' E 031°00'0 0.0
2015-Mar-20 17:33S 29°53' E 031°00'0 0.0
2015-Mar-20 15:15S 29°53' E 031°00'0 0.0
2015-Mar-20 14:33S 29°53' E 031°00'0 0.0
2015-Mar-20 13:27S 29°53' E 031°00'0 0.0
2015-Mar-20 12:33S 29°53' E 031°00'0 0.0
2015-Mar-20 11:33S 29°53' E 031°00'0 0.0
2015-Mar-20 10:27S 29°53' E 031°00'0 0.0
2015-Mar-20 09:33S 29°53' E 031°00'0 0.0
2015-Mar-20 08:33S 29°53' E 031°00'0 0.0
2015-Mar-20 07:21S 29°53' E 031°00'0 0.0
2015-Mar-20 06:27S 29°53' E 031°00'0 0.0
2015-Mar-20 05:27S 29°53' E 031°00'0 0.0
2015-Mar-20 04:33S 29°53' E 031°00'0 0.0
2015-Mar-20 03:33S 29°53' E 031°00'0 0.0
2015-Mar-20 02:33S 29°53' E 031°00'0 0.0
2015-Mar-20 01:33S 29°53' E 031°00'0 0.0
2015-Mar-20 00:33S 29°53' E 031°00'0 0.0
2015-Mar-19 23:33S 29°53' E 031°00'0 0.0
2015-Mar-19 22:33S 29°53' E 031°00'0 0.0
2015-Mar-19 21:33S 29°53' E 031°00'0 0.0
2015-Mar-19 20:33S 29°53' E 031°00'0 0.0
2015-Mar-19 19:33S 29°53' E 031°00'0 0.0
2015-Mar-19 18:21S 29°53' E 031°00'0 0.0
2015-Mar-19 17:33S 29°53' E 031°00'0 0.0
2015-Mar-19 16:33S 29°53' E 031°00'0 0.0
2015-Mar-19 15:33S 29°53' E 031°00'0 0.0
2015-Mar-19 14:33S 29°53' E 031°00'0 0.0
2015-Mar-19 13:33S 29°53' E 031°00'0 0.0
2015-Mar-19 12:33S 29°53' E 031°00'0 0.0
2015-Mar-19 11:33S 29°53' E 031°00'0 0.0
2015-Mar-19 10:33S 29°53' E 031°00'0 0.0
2015-Mar-19 09:33S 29°53' E 031°00'0 0.0
2015-Mar-19 08:27S 29°53' E 031°00'0 0.0
2015-Mar-19 07:33S 29°53' E 031°00'0 0.0
2015-Mar-19 06:33S 29°53' E 031°00'0 0.0
2015-Mar-19 05:27S 29°53' E 031°00'0 0.0
2015-Mar-19 04:33S 29°53' E 031°00'0 0.0
2015-Mar-19 03:33S 29°53' E 031°00'0 0.0
2015-Mar-19 02:09S 29°53' E 031°00'0 0.0
2015-Mar-19 01:33S 29°53' E 031°00'0 0.0
2015-Mar-19 00:33S 29°53' E 031°00'0 0.1
2015-Mar-18 23:34S 29°53' E 031°00'5 5.0
2015-Mar-18 22:34S 29°50' E 031°05'9 9.1
2015-Mar-18 21:33S 29°56' E 031°13'1 0.9
2015-Mar-18 20:33S 29°56' E 031°14'2 1.5
2015-Mar-18 19:33S 29°55' E 031°16'1 0.8
2015-Mar-18 18:33S 29°54' E 031°16'5 5.4
2015-Mar-18 17:33S 29°53' E 031°10'1 1.3
2015-Mar-18 16:33S 29°53' E 031°12'2 2.1
2015-Mar-18 15:33S 29°51' E 031°10'1 0.7
2015-Mar-18 14:33S 29°51' E 031°11'1 1.2
2015-Mar-18 13:33S 29°51' E 031°12'5 5.2
2015-Mar-18 12:33S 29°56' E 031°10'1615.5
2015-Mar-18 11:33S 30°09' E 030°59'33614.6
2015-Mar-17 12:31S 33°55' E 026°07'24 1.5
2015-Mar-16 20:27S 33°58' E 025°38'  
Track history (hours):
 
Tides and Currents Weather Stations Pressure Air Temp Water Temp Dewpoint Dewpoint Depression Visibility Wind Speed Wind Dir Waves Ship Positions

Maersk Vallvik

Last reported at 2015-Mar-22 16:29 UTC. Time now 2015-Mar-29 01:06 UTC.
Position S 34°18' E 025°02'.

Length 180 m; draft 9.2 m.

Type: Ship. MMSI: 564837000.

Date/timePositionNaut miles runAvg speedWind from/ knotsBaromVisibWave heightAir tempDewpointWater temp
2015-Mar-22 16:29S 34°18' E 025°02'4318.0
2015-Mar-22 14:06S 34°09' E 025°53'34019.0
2015-Mar-21 20:14S 30°23' E 030°53'1218.0
2015-Mar-21 19:33S 30°12' E 030°60'1716.8
2015-Mar-21 18:33S 29°57' E 031°09'7 7.2
2015-Mar-21 17:33S 29°53' E 031°02'2 1.8
2015-Mar-21 16:33S 29°53' E 031°00'0 0.0
2015-Mar-21 15:33S 29°53' E 031°00'0 0.0
2015-Mar-21 14:33S 29°53' E 031°00'0 0.0
2015-Mar-21 11:33S 29°53' E 031°00'0 0.0
2015-Mar-21 10:27S 29°53' E 031°00'0 0.0
2015-Mar-21 09:33S 29°53' E 031°00'0 0.0
2015-Mar-21 08:21S 29°53' E 031°00'0 0.0
2015-Mar-21 07:21S 29°53' E 031°00'0 0.0
2015-Mar-21 06:33S 29°53' E 031°00'0 0.0
2015-Mar-21 05:15S 29°53' E 031°00'0 0.0
2015-Mar-21 04:33S 29°53' E 031°00'0 0.0
2015-Mar-20 23:27S 29°53' E 031°00'0 0.0
2015-Mar-20 22:33S 29°53' E 031°00'0 0.0
2015-Mar-20 21:27S 29°53' E 031°00'0 0.0
2015-Mar-20 17:33S 29°53' E 031°00'0 0.0
2015-Mar-20 15:15S 29°53' E 031°00'0 0.0
2015-Mar-20 14:33S 29°53' E 031°00'0 0.0
2015-Mar-20 13:27S 29°53' E 031°00'0 0.0
2015-Mar-20 12:33S 29°53' E 031°00'0 0.0
2015-Mar-20 11:33S 29°53' E 031°00'0 0.0
2015-Mar-20 10:27S 29°53' E 031°00'0 0.0
2015-Mar-20 09:33S 29°53' E 031°00'0 0.0
2015-Mar-20 08:33S 29°53' E 031°00'0 0.0
2015-Mar-20 07:21S 29°53' E 031°00'0 0.0
2015-Mar-20 06:27S 29°53' E 031°00'0 0.0
2015-Mar-20 05:27S 29°53' E 031°00'0 0.0
2015-Mar-20 04:33S 29°53' E 031°00'0 0.0
2015-Mar-20 03:33S 29°53' E 031°00'0 0.0
2015-Mar-20 02:33S 29°53' E 031°00'0 0.0
2015-Mar-20 01:33S 29°53' E 031°00'0 0.0
2015-Mar-20 00:33S 29°53' E 031°00'0 0.0
2015-Mar-19 23:33S 29°53' E 031°00'0 0.0
2015-Mar-19 22:33S 29°53' E 031°00'0 0.0
2015-Mar-19 21:33S 29°53' E 031°00'0 0.0
2015-Mar-19 20:33S 29°53' E 031°00'0 0.0
2015-Mar-19 19:33S 29°53' E 031°00'0 0.0
2015-Mar-19 18:21S 29°53' E 031°00'0 0.0
2015-Mar-19 17:33S 29°53' E 031°00'0 0.0
2015-Mar-19 16:33S 29°53' E 031°00'0 0.0
2015-Mar-19 15:33S 29°53' E 031°00'0 0.0
2015-Mar-19 14:33S 29°53' E 031°00'0 0.0
2015-Mar-19 13:33S 29°53' E 031°00'0 0.0
2015-Mar-19 12:33S 29°53' E 031°00'0 0.0
2015-Mar-19 11:33S 29°53' E 031°00'0 0.0
2015-Mar-19 10:33S 29°53' E 031°00'0 0.0
2015-Mar-19 09:33S 29°53' E 031°00'0 0.0
2015-Mar-19 08:27S 29°53' E 031°00'0 0.0
2015-Mar-19 07:33S 29°53' E 031°00'0 0.0
2015-Mar-19 06:33S 29°53' E 031°00'0 0.0
2015-Mar-19 05:27S 29°53' E 031°00'0 0.0
2015-Mar-19 04:33S 29°53' E 031°00'0 0.0
2015-Mar-19 03:33S 29°53' E 031°00'0 0.0
2015-Mar-19 02:09S 29°53' E 031°00'0 0.0
2015-Mar-19 01:33S 29°53' E 031°00'0 0.0
2015-Mar-19 00:33S 29°53' E 031°00'0 0.1
2015-Mar-18 23:34S 29°53' E 031°00'5 5.0
2015-Mar-18 22:34S 29°50' E 031°05'9 9.1
2015-Mar-18 21:33S 29°56' E 031°13'1 0.9
2015-Mar-18 20:33S 29°56' E 031°14'2 1.5
2015-Mar-18 19:33S 29°55' E 031°16'1 0.8
2015-Mar-18 18:33S 29°54' E 031°16'5 5.4
2015-Mar-18 17:33S 29°53' E 031°10'1 1.3
2015-Mar-18 16:33S 29°53' E 031°12'2 2.1
2015-Mar-18 15:33S 29°51' E 031°10'1 0.7
2015-Mar-18 14:33S 29°51' E 031°11'1 1.2
2015-Mar-18 13:33S 29°51' E 031°12'5 5.2
2015-Mar-18 12:33S 29°56' E 031°10'1615.5
2015-Mar-18 11:33S 30°09' E 030°59'33614.6
2015-Mar-17 12:31S 33°55' E 026°07'24 1.5
2015-Mar-16 20:27S 33°58' E 025°38'  

Dump ship's entire track history